»·PEaware :: N7JF KSBA-KPSP

N7JF :: KSBA-KPSP

FLIGHT INFORMATION

Flight Status: Arrived
Operator: Privately registered:
United States
More flights under this callsign
Pilot: Anonymous 8799 (8799)
Aircraft: ECLIPSE 500
(EA50)
More flights by this aircraft type
Origin: KSBA Santa Barbara Mun
United States
Destination: KPSP Palm Springs Intl
United States
More flights between these airports :: More routes between these airports
Route: +FIM PMD V137 PSP
File this flight plan on PilotEdge
Remarks:
Altitude:
(Current/Filed)
11,000ft
Speed:
(Current/Filed)
270kts
Departed: 29-Jan-19 12:05 PM
Arrived: 29-Jan-19 12:53 PM
Distance/Time
Traveled:
170nm/0:48
Distance/Time
To Go:
Arrived

Flight Plot

Page will automatically refresh every two minutes.

Flight plan parsing failed; only flown route is shown


Map Options




Map Legend


Flown Route
Filed Route
Departure Airport
Arrival Airport
Navaid (VOR, NDB)
Fix

Horizontal Profiles

Position Reports

Time Latitude Longitude Heading Altitude Ground
Speed
29-Jan-19 11:50 34.432600 -119.835415 60 16ft 0kts
29-Jan-19 11:51 34.432600 -119.835415 60 16ft 0kts
29-Jan-19 11:52 34.432600 -119.835415 60 16ft 0kts
29-Jan-19 11:53 34.432600 -119.835415 60 16ft 0kts
29-Jan-19 11:54 34.432600 -119.835415 60 16ft 0kts
29-Jan-19 11:55 34.432600 -119.835415 60 16ft 0kts
29-Jan-19 11:56 34.432600 -119.835415 60 16ft 0kts
29-Jan-19 11:57 34.432600 -119.835415 60 16ft 0kts
29-Jan-19 11:58 34.432600 -119.835415 60 16ft 0kts
29-Jan-19 12:00 34.432602 -119.835410 64 16ft 0kts
29-Jan-19 12:01 34.432401 -119.835442 202 16ft 0kts
29-Jan-19 12:02 34.430513 -119.835360 174 16ft 7kts
29-Jan-19 12:03 34.429111 -119.835275 173 16ft 2kts
29-Jan-19 12:04 34.427914 -119.835684 262 16ft 17kts
29-Jan-19 12:05 34.427042 -119.868096 266 825ft 153kts
29-Jan-19 12:06 34.396758 -119.897459 152 3058ft 195kts
29-Jan-19 12:07 34.347123 -119.865317 152 5649ft 210kts
29-Jan-19 12:08 34.295653 -119.830754 151 7946ft 231kts
29-Jan-19 12:09 34.240129 -119.771610 92 8729ft 290kts
29-Jan-19 12:10 34.258607 -119.678038 80 10568ft 296kts
29-Jan-19 12:11 34.268349 -119.577225 79 12189ft 307kts
29-Jan-19 12:12 34.281119 -119.474048 78 13754ft 314kts
29-Jan-19 12:13 34.294775 -119.368220 77 14948ft 325kts
29-Jan-19 12:14 34.309433 -119.254389 78 14982ft 358kts
29-Jan-19 12:15 34.324807 -119.133317 78 15256ft 367kts
29-Jan-19 12:16 34.340440 -119.010363 78 15694ft 372kts
29-Jan-19 12:16 34.353367 -118.907795 78 15125ft 361kts
29-Jan-19 12:18 34.388361 -118.787650 63 14999ft 299kts
29-Jan-19 12:19 34.418991 -118.697835 63 15000ft 279kts
29-Jan-19 12:20 34.448441 -118.610622 63 15004ft 287kts
29-Jan-19 12:21 34.480124 -118.516822 63 15002ft 311kts
29-Jan-19 12:22 34.513440 -118.417559 64 15003ft 322kts
29-Jan-19 12:22 34.541212 -118.334633 64 14999ft 323kts
29-Jan-19 12:23 34.575260 -118.232924 64 14999ft 330kts
29-Jan-19 12:24 34.609863 -118.128952 64 14999ft 334kts
29-Jan-19 12:25 34.613228 -118.021387 119 15012ft 344kts
29-Jan-19 12:26 34.565835 -117.919546 119 15027ft 348kts
29-Jan-19 12:27 34.519308 -117.818464 118 15045ft 337kts
29-Jan-19 12:28 34.473780 -117.719285 118 15047ft 340kts
29-Jan-19 12:29 34.427241 -117.618197 118 15046ft 344kts
29-Jan-19 12:30 34.380627 -117.517211 118 15047ft 342kts
29-Jan-19 12:31 34.334376 -117.417461 118 15049ft 338kts
29-Jan-19 12:32 34.288643 -117.318815 119 15045ft 339kts
29-Jan-19 12:33 34.242169 -117.219096 119 15046ft 342kts
29-Jan-19 12:34 34.195459 -117.119034 119 14659ft 331kts
29-Jan-19 12:35 34.152940 -117.028259 119 14041ft 292kts
29-Jan-19 12:36 34.114476 -116.946216 119 14020ft 273kts
29-Jan-19 12:37 34.077647 -116.867895 119 14003ft 263kts
29-Jan-19 12:38 34.041892 -116.792021 119 14000ft 257kts
29-Jan-19 12:39 34.006385 -116.716857 119 14000ft 257kts
29-Jan-19 12:40 33.971377 -116.642851 119 13676ft 255kts
29-Jan-19 12:41 33.935844 -116.567926 119 12717ft 261kts
29-Jan-19 12:42 33.899968 -116.492427 119 11583ft 265kts
29-Jan-19 12:43 33.858964 -116.421322 126 10277ft 256kts
29-Jan-19 12:44 33.832364 -116.343935 111 9000ft 255kts
29-Jan-19 12:45 33.807335 -116.265890 111 8004ft 230kts
29-Jan-19 12:46 33.764587 -116.239977 211 7697ft 204kts
29-Jan-19 12:47 33.731507 -116.285569 273 6503ft 195kts
29-Jan-19 12:48 33.740918 -116.350389 279 5006ft 197kts
29-Jan-19 12:49 33.751841 -116.412927 283 3747ft 182kts
29-Jan-19 12:50 33.779826 -116.463661 323 1854ft 187kts
29-Jan-19 12:51 33.813654 -116.493601 325 621ft 110kts
29-Jan-19 12:52 33.832523 -116.510203 320 480ft 26kts
29-Jan-19 12:53 33.833764 -116.509651 144 480ft 15kts
29-Jan-19 12:54 33.828027 -116.504538 144 480ft 21kts
29-Jan-19 12:55 33.825346 -116.502101 140 480ft 18kts
29-Jan-19 12:56 33.823159 -116.500195 144 480ft 21kts
29-Jan-19 12:57 33.819963 -116.495812 53 480ft 10kts
29-Jan-19 12:58 33.822857 -116.497549 327 480ft 16kts

Navigation Log

Ident Type
Flight plan parsing failed, navigation log unavailable